createdAt,value
2019-01-24T00:02:29.085Z,98143.77
2019-01-24T00:05:19.516Z,98141.40
2019-01-24T00:08:09.905Z,98145.28
2019-01-24T00:11:00.135Z,98146.91
2019-01-24T00:13:32.295Z,98152.81
2019-01-24T00:16:22.654Z,98155.22
2019-01-24T00:18:54.925Z,98158.25
2019-01-24T00:21:27.145Z,98158.54
2019-01-24T00:23:59.284Z,98167.58
2019-01-24T00:26:31.421Z,98170.80
2019-01-24T00:29:03.567Z,98176.46
2019-01-24T00:31:35.760Z,98180.48
2019-01-24T00:34:07.983Z,98179.37
2019-01-24T00:36:40.193Z,98181.97
2019-01-24T00:39:12.521Z,98183.36
2019-01-24T00:41:44.646Z,98181.25
2019-01-24T00:44:16.795Z,98184.44
2019-01-24T00:46:48.991Z,98184.42
2019-01-24T00:49:21.137Z,98187.73
2019-01-24T00:51:53.263Z,98193.25
2019-01-24T00:54:26.991Z,98196.29
2019-01-24T00:56:59.112Z,98202.69
2019-01-24T00:59:31.258Z,98207.36
2019-01-24T01:02:03.452Z,98204.77
2019-01-24T01:04:35.631Z,98214.15
2019-01-24T01:07:07.979Z,98216.87
2019-01-24T01:09:40.149Z,98224.92
2019-01-24T01:12:12.444Z,98229.77
2019-01-24T01:14:44.584Z,98237.81
2019-01-24T01:17:16.700Z,98238.57
2019-01-24T01:19:48.852Z,98239.31
2019-01-24T01:22:20.970Z,98242.28
2019-01-24T01:24:53.152Z,98251.02
2019-01-24T01:27:25.272Z,98248.97
2019-01-24T01:29:57.458Z,98254.96
2019-01-24T01:32:29.587Z,98258.04
2019-01-24T01:35:01.737Z,98258.98
2019-01-24T01:37:33.957Z,98256.43
2019-01-24T01:40:08.851Z,98263.23
2019-01-24T01:42:41.045Z,98265.03
2019-01-24T01:45:19.169Z,98267.06
2019-01-24T01:47:51.295Z,98273.94
2019-01-24T01:50:25.244Z,98275.02
2019-01-24T01:52:57.381Z,98276.83
2019-01-24T01:55:29.809Z,98276.83
2019-01-24T01:58:02.000Z,98276.88
2019-01-24T02:00:34.155Z,98280.44
2019-01-24T02:03:06.317Z,98283.66
2019-01-24T02:05:38.456Z,98285.45
2019-01-24T02:08:10.666Z,98285.64
2019-01-24T02:10:42.788Z,98288.05
2019-01-24T02:13:15.008Z,98287.70
2019-01-24T02:15:47.302Z,98287.67
2019-01-24T02:18:19.348Z,98285.87
2019-01-24T02:20:51.534Z,98287.13
2019-01-24T02:23:23.664Z,98289.31
2019-01-24T02:25:55.965Z,98287.57
2019-01-24T02:28:28.113Z,98285.72
2019-01-24T02:31:00.205Z,98281.94
2019-01-24T02:33:32.322Z,98281.75
2019-01-24T02:36:05.667Z,98278.45
2019-01-24T02:38:37.865Z,98279.95
2019-01-24T02:41:10.133Z,98287.17
2019-01-24T02:43:42.281Z,98290.66
2019-01-24T02:46:14.444Z,98289.22
2019-01-24T02:48:46.490Z,98290.64
2019-01-24T02:51:18.640Z,98300.42
2019-01-24T02:53:50.829Z,98298.34
2019-01-24T02:56:22.997Z,98299.28
2019-01-24T02:58:55.247Z,98300.10
2019-01-24T03:01:27.407Z,98304.67
2019-01-24T03:03:59.635Z,98302.91
2019-01-24T03:06:32.036Z,98304.72
2019-01-24T03:09:05.306Z,98307.47
2019-01-24T03:11:37.812Z,98306.06
2019-01-24T03:14:09.950Z,98306.85
2019-01-24T03:16:43.136Z,98310.97
2019-01-24T03:19:15.281Z,98310.94
2019-01-24T03:21:47.476Z,98317.34
2019-01-24T03:24:19.709Z,98323.20
2019-01-24T03:26:52.079Z,98325.05
2019-01-24T03:29:24.236Z,98317.66
2019-01-24T03:31:56.791Z,98324.39
2019-01-24T03:34:30.345Z,98322.44
2019-01-24T03:37:02.649Z,98324.83
2019-01-24T03:39:35.833Z,98331.59
2019-01-24T03:42:08.818Z,98331.42
2019-01-24T03:44:41.213Z,98338.19
2019-01-24T03:47:13.491Z,98334.33
2019-01-24T03:49:45.711Z,98338.32
2019-01-24T03:52:18.019Z,98340.80
2019-01-24T03:54:50.158Z,98342.35
2019-01-24T03:57:22.760Z,98345.86
2019-01-24T03:59:56.220Z,98346.92
2019-01-24T04:02:28.475Z,98350.70
2019-01-24T04:05:00.549Z,98347.92
2019-01-24T04:07:32.750Z,98352.89
2019-01-24T04:10:06.646Z,98355.70
2019-01-24T04:12:38.928Z,98354.06
2019-01-24T04:15:14.502Z,98359.95
2019-01-24T04:17:46.908Z,98359.47
2019-01-24T04:20:19.094Z,98356.80
2019-01-24T04:22:51.367Z,98355.92
2019-01-24T04:25:23.630Z,98360.19
2019-01-24T04:27:55.751Z,98360.89
2019-01-24T04:30:28.054Z,98361.92
2019-01-24T04:33:00.153Z,98363.56
2019-01-24T04:35:32.311Z,98365.19
2019-01-24T04:38:04.682Z,98364.17
2019-01-24T04:40:36.883Z,98369.50
2019-01-24T04:43:09.109Z,98373.70
2019-01-24T04:45:41.319Z,98378.69
2019-01-24T04:48:13.483Z,98374.39
2019-01-24T04:50:45.623Z,98370.63
2019-01-24T04:53:17.798Z,98372.51
2019-01-24T04:55:50.024Z,98377.19
2019-01-24T04:58:22.243Z,98380.33
2019-01-24T05:00:54.468Z,98384.14
2019-01-24T05:03:26.688Z,98384.09
2019-01-24T05:05:58.874Z,98389.30
2019-01-24T05:08:31.033Z,98389.84
2019-01-24T05:11:03.179Z,98397.66
2019-01-24T05:13:35.386Z,98396.69
2019-01-24T05:16:07.678Z,98402.23
2019-01-24T05:18:39.826Z,98407.67
2019-01-24T05:21:11.945Z,98406.59
2019-01-24T05:23:44.082Z,98415.45
2019-01-24T05:26:16.224Z,98414.05
2019-01-24T05:28:48.357Z,98427.39
2019-01-24T05:31:20.471Z,98425.45
2019-01-24T05:33:52.623Z,98429.94
2019-01-24T05:36:24.735Z,98435.75
2019-01-24T05:38:56.878Z,98438.36
2019-01-24T05:41:28.998Z,98445.97
2019-01-24T05:44:01.130Z,98436.75
2019-01-24T05:46:33.195Z,98442.43
2019-01-24T05:49:05.343Z,98445.97
2019-01-24T05:51:37.467Z,98450.91
2019-01-24T05:54:09.610Z,98449.70
2019-01-24T05:56:41.754Z,98452.95
2019-01-24T05:59:13.898Z,98451.22
2019-01-24T06:01:46.430Z,98453.89
2019-01-24T06:04:18.738Z,98459.59
2019-01-24T06:06:50.933Z,98459.08
2019-01-24T06:09:23.077Z,98465.98
2019-01-24T06:11:55.282Z,98468.17
2019-01-24T06:14:27.604Z,98468.02
2019-01-24T06:16:59.821Z,98471.55
2019-01-24T06:19:31.970Z,98472.91
2019-01-24T06:22:04.177Z,98472.27
2019-01-24T06:24:36.365Z,98475.88
2019-01-24T06:27:08.528Z,98478.64
2019-01-24T06:29:40.811Z,98481.30
2019-01-24T06:32:13.010Z,98487.18
2019-01-24T06:34:45.171Z,98488.68
2019-01-24T06:37:17.382Z,98495.04
2019-01-24T06:39:49.693Z,98502.83
2019-01-24T06:42:21.963Z,98504.24
2019-01-24T06:44:54.165Z,98504.69
2019-01-24T06:47:26.347Z,98510.59
2019-01-24T06:49:58.565Z,98516.58
2019-01-24T06:52:30.948Z,98515.34
2019-01-24T06:55:03.134Z,98529.56
2019-01-24T06:57:35.308Z,98530.20
2019-01-24T07:00:12.472Z,98537.91
2019-01-24T07:02:44.653Z,98535.30
2019-01-24T07:05:16.701Z,98540.33
2019-01-24T07:07:49.020Z,98539.70
2019-01-24T07:10:22.042Z,98546.78
2019-01-24T07:12:54.347Z,98540.58
2019-01-24T07:15:27.622Z,98545.59
2019-01-24T07:17:59.777Z,98545.83
2019-01-24T07:20:31.993Z,98551.10
2019-01-24T07:23:04.182Z,98563.22
2019-01-24T07:25:36.699Z,98564.36
2019-01-24T07:28:17.728Z,98568.84
2019-01-24T07:30:50.197Z,98576.24
2019-01-24T07:33:22.420Z,98569.16
2019-01-24T07:35:54.680Z,98575.37
2019-01-24T07:38:26.983Z,98574.77
2019-01-24T07:40:59.122Z,98584.05
2019-01-24T07:43:31.340Z,98584.23
2019-01-24T07:46:03.489Z,98587.77
2019-01-24T07:48:35.795Z,98591.86
2019-01-24T07:51:07.928Z,98589.92
2019-01-24T07:53:40.311Z,98591.41
2019-01-24T07:56:12.525Z,98599.45
2019-01-24T07:58:45.007Z,98603.45
2019-01-24T08:01:17.656Z,98605.86
2019-01-24T08:03:50.061Z,98601.66
2019-01-24T08:06:22.258Z,98605.16
2019-01-24T08:08:54.459Z,98608.66
2019-01-24T08:11:26.828Z,98615.87
2019-01-24T08:13:59.203Z,98616.50
2019-01-24T08:16:31.417Z,98623.45
2019-01-24T08:19:03.854Z,98617.55
2019-01-24T08:21:36.328Z,98616.22
2019-01-24T08:24:08.545Z,98618.33
2019-01-24T08:26:40.815Z,98620.58
2019-01-24T08:29:12.967Z,98620.63
2019-01-24T08:31:45.273Z,98620.77
2019-01-24T08:34:17.559Z,98618.95
2019-01-24T08:36:49.680Z,98624.66
2019-01-24T08:39:21.902Z,98628.21
2019-01-24T08:41:54.029Z,98627.44
2019-01-24T08:44:29.476Z,98627.58
2019-01-24T08:47:01.588Z,98625.55
2019-01-24T08:49:33.899Z,98633.81
2019-01-24T08:52:06.195Z,98631.20
2019-01-24T08:54:38.767Z,98635.02
2019-01-24T08:57:11.083Z,98640.12
2019-01-24T08:59:43.345Z,98639.66
2019-01-24T09:02:15.563Z,98639.63
2019-01-24T09:04:47.804Z,98641.37
2019-01-24T09:07:20.010Z,98641.56
2019-01-24T09:09:52.266Z,98644.77
2019-01-24T09:12:30.191Z,98644.44
2019-01-24T09:14:58.478Z,98653.70
2019-01-24T09:17:30.775Z,98656.52
2019-01-24T09:20:03.102Z,98657.56
2019-01-24T09:22:35.233Z,98658.11
2019-01-24T09:25:07.761Z,98661.63
2019-01-24T09:27:40.003Z,98667.84
2019-01-24T09:30:16.486Z,98673.78
2019-01-24T09:32:48.625Z,98676.71
2019-01-24T09:35:20.890Z,98678.53
2019-01-24T09:37:53.049Z,98679.34
2019-01-24T09:40:25.419Z,98681.55
2019-01-24T09:42:57.620Z,98688.09
2019-01-24T09:45:30.715Z,98684.42
2019-01-24T09:48:03.285Z,98701.25
2019-01-24T09:50:35.446Z,98710.97
2019-01-24T09:53:07.641Z,98711.00
2019-01-24T09:55:40.786Z,98713.88
2019-01-24T09:58:13.005Z,98709.73
2019-01-24T10:00:45.157Z,98720.92
2019-01-24T10:03:17.286Z,98728.78
2019-01-24T10:05:49.551Z,98728.58
2019-01-24T10:08:22.079Z,98730.81
2019-01-24T10:10:54.227Z,98730.14
2019-01-24T10:13:26.564Z,98726.22
2019-01-24T10:15:58.756Z,98733.19
2019-01-24T10:18:30.950Z,98736.81
2019-01-24T10:21:03.200Z,98735.92
2019-01-24T10:23:35.485Z,98741.69
2019-01-24T10:26:07.729Z,98735.12
2019-01-24T10:28:39.857Z,98737.31
2019-01-24T10:31:12.086Z,98735.85
2019-01-24T10:33:44.283Z,98731.83
2019-01-24T10:36:17.016Z,98744.20
2019-01-24T10:38:49.295Z,98741.64
2019-01-24T10:41:21.432Z,98733.78
2019-01-24T10:43:53.561Z,98739.00
2019-01-24T10:46:25.723Z,98735.84
2019-01-24T10:48:57.844Z,98737.19
2019-01-24T10:51:30.351Z,98730.27
2019-01-24T10:54:02.468Z,98732.46
2019-01-24T10:56:35.301Z,98732.75
2019-01-24T10:59:07.665Z,98726.83
2019-01-24T11:01:39.915Z,98728.97
2019-01-24T11:04:12.217Z,98727.83
2019-01-24T11:06:49.960Z,98734.69
2019-01-24T11:09:18.321Z,98740.36
2019-01-24T11:11:50.556Z,98738.55
2019-01-24T11:14:22.782Z,98734.28
2019-01-24T11:16:55.056Z,98735.18
2019-01-24T11:19:27.360Z,98737.06
2019-01-24T11:21:59.595Z,98739.69
2019-01-24T11:24:31.819Z,98745.54
2019-01-24T11:27:03.985Z,98737.09
2019-01-24T11:29:36.194Z,98736.63
2019-01-24T11:32:08.516Z,98735.72
2019-01-24T11:34:40.738Z,98731.29
2019-01-24T11:37:12.913Z,98729.42
2019-01-24T11:39:45.068Z,98724.84
2019-01-24T11:42:17.328Z,98723.67
2019-01-24T11:44:49.624Z,98721.31
2019-01-24T11:47:21.811Z,98720.32
2019-01-24T11:49:54.246Z,98728.67
2019-01-24T11:52:26.443Z,98728.42
2019-01-24T11:54:58.588Z,98723.66
2019-01-24T11:57:30.826Z,98719.61
2019-01-24T12:00:03.063Z,98724.52
2019-01-24T12:02:39.673Z,98725.04
2019-01-24T12:05:10.607Z,98723.39
2019-01-24T12:07:43.868Z,98717.56
2019-01-24T12:10:19.663Z,98715.88
2019-01-24T12:12:51.897Z,98723.05
2019-01-24T12:15:24.893Z,98717.87
2019-01-24T12:17:57.111Z,98723.22
2019-01-24T12:20:29.403Z,98723.45
2019-01-24T12:23:02.690Z,98720.47
2019-01-24T12:25:34.922Z,98716.77
2019-01-24T12:28:07.131Z,98712.13
2019-01-24T12:30:39.447Z,98714.82
2019-01-24T12:33:11.608Z,98721.96
2019-01-24T12:35:44.977Z,98724.73
2019-01-24T12:38:17.076Z,98718.42
2019-01-24T12:40:49.220Z,98717.48
2019-01-24T12:43:21.352Z,98720.39
2019-01-24T12:45:53.571Z,98723.06
2019-01-24T12:48:25.901Z,98718.16
2019-01-24T12:50:58.140Z,98718.67
2019-01-24T12:53:30.339Z,98721.73
2019-01-24T12:56:02.648Z,98720.39
2019-01-24T12:58:34.935Z,98721.83
2019-01-24T13:01:07.094Z,98729.44
2019-01-24T13:03:39.230Z,98729.88
2019-01-24T13:06:11.379Z,98733.23
2019-01-24T13:08:43.502Z,98739.55
2019-01-24T13:11:15.649Z,98740.62
2019-01-24T13:13:48.894Z,98740.48
2019-01-24T13:16:21.119Z,98740.64
2019-01-24T13:18:53.323Z,98745.19
2019-01-24T13:21:25.501Z,98741.58
2019-01-24T13:23:57.629Z,98748.41
2019-01-24T13:26:29.799Z,98745.83
2019-01-24T13:29:07.840Z,98752.17
2019-01-24T13:31:39.989Z,98752.41
2019-01-24T13:34:12.071Z,98755.70
2019-01-24T13:36:45.201Z,98761.05
2019-01-24T13:39:17.400Z,98760.25
2019-01-24T13:41:49.563Z,98762.86
2019-01-24T13:44:21.760Z,98763.24
2019-01-24T13:46:54.002Z,98769.54
2019-01-24T13:49:26.125Z,98770.09
2019-01-24T13:51:58.270Z,98769.62
2019-01-24T13:54:30.405Z,98771.39
2019-01-24T13:57:02.747Z,98772.23
2019-01-24T13:59:34.942Z,98775.79
2019-01-24T14:02:07.116Z,98780.13
2019-01-24T14:04:45.513Z,98783.30
2019-01-24T14:07:17.744Z,98786.50
2019-01-24T14:09:49.878Z,98787.07
2019-01-24T14:12:22.030Z,98792.42
2019-01-24T14:14:54.158Z,98796.83
2019-01-24T14:17:26.510Z,98797.48
2019-01-24T14:19:58.884Z,98799.75
2019-01-24T14:22:31.038Z,98806.63
2019-01-24T14:25:03.261Z,98810.33
2019-01-24T14:27:37.954Z,98813.53
2019-01-24T14:30:22.848Z,98812.13
2019-01-24T14:32:55.111Z,98815.31
2019-01-24T14:35:27.359Z,98817.83
2019-01-24T14:37:59.997Z,98823.47
2019-01-24T14:40:32.159Z,98820.95
2019-01-24T14:43:04.615Z,98819.53
2019-01-24T14:45:36.824Z,98819.23
2019-01-24T14:48:09.764Z,98820.16
2019-01-24T14:50:41.933Z,98828.04
2019-01-24T14:53:14.135Z,98822.13
2019-01-24T14:55:46.440Z,98824.34
2019-01-24T14:58:18.667Z,98819.55
2019-01-24T15:01:17.153Z,98826.08
2019-01-24T15:03:49.393Z,98824.18
2019-01-24T15:06:21.534Z,98821.30
2019-01-24T15:08:53.766Z,98825.45
2019-01-24T15:11:26.128Z,98831.29
2019-01-24T15:13:58.371Z,98834.27
2019-01-24T15:16:30.504Z,98837.56
2019-01-24T15:19:02.727Z,98841.41
2019-01-24T15:21:35.977Z,98839.22
2019-01-24T15:24:08.477Z,98842.19
2019-01-24T15:26:40.680Z,98844.03
2019-01-24T15:29:12.835Z,98845.27
2019-01-24T15:31:45.083Z,98847.22
2019-01-24T15:34:17.350Z,98852.04
2019-01-24T15:36:49.466Z,98854.39
2019-01-24T15:39:21.647Z,98851.17
2019-01-24T15:41:53.788Z,98854.07
2019-01-24T15:44:25.930Z,98856.63
2019-01-24T15:46:58.282Z,98864.69
2019-01-24T15:49:30.423Z,98869.49
2019-01-24T15:52:02.627Z,98866.66
2019-01-24T15:54:34.753Z,98869.02
2019-01-24T15:57:07.073Z,98866.45
2019-01-24T15:59:40.183Z,98871.97
2019-01-24T16:02:12.408Z,98878.61
2019-01-24T16:04:44.524Z,98884.66
2019-01-24T16:07:16.771Z,98885.20
2019-01-24T16:09:48.983Z,98885.68
2019-01-24T16:12:21.129Z,98887.02
2019-01-24T16:14:53.327Z,98888.17
2019-01-24T16:17:25.487Z,98886.77
2019-01-24T16:19:57.684Z,98890.02
2019-01-24T16:22:29.828Z,98893.13
2019-01-24T16:25:02.025Z,98894.41
2019-01-24T16:27:34.172Z,98890.59
2019-01-24T16:30:09.766Z,98897.89
2019-01-24T16:32:42.056Z,98900.89
2019-01-24T16:35:15.551Z,98905.08
2019-01-24T16:37:47.692Z,98905.92
2019-01-24T16:40:21.678Z,98904.97
2019-01-24T16:42:53.820Z,98917.72
2019-01-24T16:45:28.653Z,98920.34
2019-01-24T16:48:03.752Z,98925.02
2019-01-24T16:50:35.870Z,98928.41
2019-01-24T16:53:08.017Z,98935.50
2019-01-24T16:55:40.141Z,98936.08
2019-01-24T16:58:12.299Z,98942.53
2019-01-24T17:01:06.463Z,98946.11
2019-01-24T17:03:38.608Z,98950.76
2019-01-24T17:06:10.728Z,98951.05
2019-01-24T17:08:42.948Z,98960.81
2019-01-24T17:11:15.091Z,98958.95
2019-01-24T17:13:47.219Z,98963.75
2019-01-24T17:16:19.473Z,98970.57
2019-01-24T17:18:51.630Z,98964.36
2019-01-24T17:21:23.830Z,98972.95
2019-01-24T17:23:55.982Z,98969.18
2019-01-24T17:26:28.576Z,98970.02
2019-01-24T17:29:00.742Z,98974.35
2019-01-24T17:31:32.863Z,98972.73
2019-01-24T17:34:05.222Z,98981.01
2019-01-24T17:36:37.503Z,98975.25
2019-01-24T17:39:12.544Z,98980.27
2019-01-24T17:41:45.019Z,98977.02
2019-01-24T17:44:17.175Z,98978.50
2019-01-24T17:46:49.234Z,98978.88
2019-01-24T17:49:21.384Z,98979.66
2019-01-24T17:51:53.522Z,98981.45
2019-01-24T17:54:25.748Z,98980.72
2019-01-24T17:56:58.049Z,98990.58
2019-01-24T17:59:30.207Z,98994.24
2019-01-24T18:02:02.394Z,98999.07
2019-01-24T18:04:34.555Z,98996.95
2019-01-24T18:07:06.830Z,98999.22
2019-01-24T18:09:38.982Z,98999.12
2019-01-24T18:12:11.179Z,99002.27
2019-01-24T18:14:43.326Z,99007.45
2019-01-24T18:17:15.623Z,99008.88
2019-01-24T18:19:47.765Z,99013.67
2019-01-24T18:22:20.957Z,99017.09
2019-01-24T18:24:53.371Z,99017.67
2019-01-24T18:27:25.636Z,99022.84
2019-01-24T18:29:58.426Z,99018.27
2019-01-24T18:32:30.546Z,99015.27
2019-01-24T18:35:02.730Z,99019.69
2019-01-24T18:37:35.121Z,99023.55
2019-01-24T18:40:09.124Z,99023.47
2019-01-24T18:42:41.525Z,99030.11
2019-01-24T18:45:17.764Z,99032.78
2019-01-24T18:47:49.957Z,99034.52
2019-01-24T18:50:22.907Z,99033.97
2019-01-24T18:52:55.045Z,99038.00
2019-01-24T18:55:27.426Z,99036.43
2019-01-24T18:57:59.700Z,99040.34
2019-01-24T19:00:43.627Z,99043.67
2019-01-24T19:03:16.269Z,99043.41
2019-01-24T19:05:48.518Z,99042.05
2019-01-24T19:08:20.788Z,99039.74
2019-01-24T19:10:53.114Z,99044.35
2019-01-24T19:13:25.309Z,99044.98
2019-01-24T19:15:57.544Z,99042.88
2019-01-24T19:18:30.652Z,99046.79
2019-01-24T19:21:04.073Z,99050.13
2019-01-24T19:23:36.255Z,99055.70
2019-01-24T19:26:08.436Z,99051.85
2019-01-24T19:28:40.712Z,99051.85
2019-01-24T19:31:13.060Z,99058.48
2019-01-24T19:33:45.214Z,99061.73
2019-01-24T19:36:17.517Z,99065.67
2019-01-24T19:38:53.223Z,99067.19
2019-01-24T19:41:23.676Z,99066.33
2019-01-24T19:43:55.729Z,99065.98
2019-01-24T19:46:27.894Z,99067.87
2019-01-24T19:49:03.785Z,99073.17
2019-01-24T19:51:36.500Z,99081.40
2019-01-24T19:54:10.245Z,99084.94
2019-01-24T19:56:42.476Z,99082.88
2019-01-24T19:59:14.606Z,99088.38
2019-01-24T20:01:46.882Z,99089.36
2019-01-24T20:04:20.599Z,99092.77
2019-01-24T20:06:52.934Z,99096.52
2019-01-24T20:09:25.103Z,99092.88
2019-01-24T20:11:57.965Z,99101.31
2019-01-24T20:14:30.091Z,99101.55
2019-01-24T20:17:02.462Z,99104.30
2019-01-24T20:19:34.752Z,99103.98
2019-01-24T20:22:08.708Z,99101.95
2019-01-24T20:24:43.497Z,99112.72
2019-01-24T20:27:15.753Z,99111.84
2019-01-24T20:29:48.268Z,99112.06
2019-01-24T20:32:20.572Z,99115.66
2019-01-24T20:34:52.713Z,99116.98
2019-01-24T20:37:25.264Z,99119.19
2019-01-24T20:39:57.461Z,99123.23
2019-01-24T20:42:29.726Z,99126.91
2019-01-24T20:45:02.130Z,99131.48
2019-01-24T20:47:34.375Z,99132.02
2019-01-24T20:50:08.111Z,99128.48
2019-01-24T20:52:40.531Z,99130.31
2019-01-24T20:55:14.537Z,99131.76
2019-01-24T20:57:46.776Z,99130.63
2019-01-24T21:00:21.251Z,99132.02
2019-01-24T21:02:53.654Z,99131.79
2019-01-24T21:05:25.839Z,99133.49
2019-01-24T21:07:59.042Z,99128.32
2019-01-24T21:10:31.191Z,99129.17
2019-01-24T21:13:03.366Z,99126.65
2019-01-24T21:15:35.776Z,99123.09
2019-01-24T21:18:08.093Z,99124.97
2019-01-24T21:20:40.295Z,99127.23
2019-01-24T21:23:12.532Z,99126.96
2019-01-24T21:25:44.652Z,99129.03
2019-01-24T21:28:16.818Z,99133.86
2019-01-24T21:30:48.975Z,99133.41
2019-01-24T21:33:21.125Z,99135.51
2019-01-24T21:35:53.299Z,99137.56
2019-01-24T21:38:25.459Z,99138.31
2019-01-24T21:40:57.607Z,99140.39
2019-01-24T21:43:29.822Z,99139.45
2019-01-24T21:46:01.985Z,99142.64
2019-01-24T21:48:34.115Z,99145.42
2019-01-24T21:51:11.084Z,99143.56
2019-01-24T21:53:40.027Z,99144.24
2019-01-24T21:56:12.252Z,99140.08
2019-01-24T21:58:44.456Z,99142.53
2019-01-24T22:01:16.687Z,99142.53
2019-01-24T22:03:48.811Z,99145.31
2019-01-24T22:06:21.032Z,99138.66
2019-01-24T22:08:53.249Z,99139.89
2019-01-24T22:11:25.403Z,99138.66
2019-01-24T22:13:57.538Z,99140.69
2019-01-24T22:16:29.762Z,99143.02
2019-01-24T22:19:01.957Z,99140.75
2019-01-24T22:21:34.116Z,99135.52
2019-01-24T22:24:06.490Z,99139.95
2019-01-24T22:26:38.716Z,99139.73
2019-01-24T22:29:10.846Z,99145.74
2019-01-24T22:31:43.070Z,99147.42
2019-01-24T22:34:15.124Z,99145.45
2019-01-24T22:36:47.267Z,99145.58
2019-01-24T22:39:19.410Z,99147.27
2019-01-24T22:41:51.561Z,99149.15
2019-01-24T22:44:23.679Z,99148.76
2019-01-24T22:46:55.924Z,99142.47
2019-01-24T22:49:28.092Z,99147.55
2019-01-24T22:52:00.533Z,99148.28
2019-01-24T22:54:32.675Z,99146.50
2019-01-24T22:57:04.962Z,99143.12
2019-01-24T22:59:37.081Z,99149.63
2019-01-24T23:02:22.386Z,99152.22
2019-01-24T23:04:54.511Z,99153.03
2019-01-24T23:07:26.722Z,99159.45
2019-01-24T23:09:59.159Z,99163.76
2019-01-24T23:12:31.308Z,99166.04
2019-01-24T23:15:03.834Z,99171.66
2019-01-24T23:17:36.358Z,99170.97
2019-01-24T23:20:09.203Z,99172.04
2019-01-24T23:22:41.424Z,99169.76
2019-01-24T23:25:13.617Z,99167.40
2019-01-24T23:27:45.865Z,99168.73
2019-01-24T23:30:18.130Z,99164.02
2019-01-24T23:32:50.177Z,99162.36
2019-01-24T23:35:22.345Z,99168.03
2019-01-24T23:37:54.470Z,99167.63
2019-01-24T23:40:26.617Z,99169.73
2019-01-24T23:42:58.755Z,99171.05
2019-01-24T23:45:30.967Z,99174.01
2019-01-24T23:48:03.229Z,99173.48
2019-01-24T23:50:35.388Z,99175.55
2019-01-24T23:53:07.574Z,99175.87
2019-01-24T23:55:39.718Z,99176.28
2019-01-24T23:58:11.906Z,99178.73
